Saltar para o conteúdo principal

Pedrógão Grande (CMPG)

ID 6214119 · 39.9266, -8.1509 mapa

Última leitura · 2026-05-09 19:00 (Europe/Lisbon)

Temperatura
10.2 °C
Humidade
95 %
Pressão
1,008.5 hPa
Precipitação
2.8 mm
Radiação
Velocidade do vento
Direcção do vento
Sem vento

Histórico de 24 horas

Hora (Europe/Lisbon) Temperatura Humidade Pressão Chuva Vento Direcção
2026-05-09 19:00 10.2 °C 95 % 1,008.5 2.8 mm
2026-05-09 18:00 10.6 °C 90 % 1,007.9 2.5 mm
2026-05-09 17:00 14.4 °C 77 % 1,005.7 0.0 mm 17.6 km/h SW
2026-05-09 16:00 15.9 °C 68 % 1,005.0 0.0 mm 18.4 km/h S
2026-05-09 15:00 16.3 °C 69 % 1,004.3 0.0 mm 25.6 km/h SW
2026-05-09 14:00 14.8 °C 84 % 1,004.5 2.2 mm 20.5 km/h SW
2026-05-09 13:00 15.1 °C 79 % 1,004.5 0.0 mm 14.0 km/h S
2026-05-09 12:00 14.6 °C 78 % 1,004.4 0.0 mm 19.1 km/h SE
2026-05-09 11:00 13.6 °C 83 % 1,004.7 0.0 mm 19.1 km/h SE
2026-05-09 10:00 11.4 °C 93 % 1,005.1 1.2 mm 18.0 km/h SE
2026-05-09 09:00 11.6 °C 86 % 1,005.1 2.1 mm 15.5 km/h SE
2026-05-09 08:00 12.4 °C 80 % 1,005.0 0.1 mm 22.3 km/h SE
2026-05-09 07:00 11.8 °C 89 % 1,005.1 0.0 mm 19.8 km/h SE
2026-05-09 06:00 11.8 °C 89 % 1,005.1 0.3 mm 15.8 km/h SE
2026-05-09 05:00 11.9 °C 86 % 1,005.8 0.0 mm 15.1 km/h SE
2026-05-09 04:00 11.8 °C 85 % 1,006.1 0.0 mm 17.6 km/h SE
2026-05-09 03:00 11.9 °C 84 % 1,006.7 0.0 mm 21.2 km/h SE
2026-05-09 02:00 11.9 °C 89 % 1,007.2 0.1 mm 13.3 km/h SE
2026-05-09 01:00 12.0 °C 91 % 1,007.2 0.2 mm 20.2 km/h SE
2026-05-09 00:00 11.8 °C 95 % 1,008.1 0.2 mm 7.6 km/h SE
2026-05-08 23:00 11.9 °C 93 % 1,008.2 0.2 mm 7.6 km/h S
2026-05-08 22:00 12.8 °C 82 % 1,007.8 0.9 mm 3.2 km/h SE
2026-05-08 21:00 15.0 °C 65 % 1,006.7 0.0 mm 2.2 km/h S
2026-05-08 20:00 16.7 °C 55 % 1,006.4 0.0 mm 5.4 km/h E